createdAt,value
2019-02-17T00:01:01.574Z,101836.08
2019-02-17T00:03:31.856Z,101836.37
2019-02-17T00:06:02.129Z,101834.71
2019-02-17T00:08:32.475Z,101834.73
2019-02-17T00:11:02.784Z,101833.88
2019-02-17T00:13:33.098Z,101830.88
2019-02-17T00:16:04.612Z,101829.55
2019-02-17T00:18:34.880Z,101827.84
2019-02-17T00:21:05.172Z,101831.75
2019-02-17T00:23:35.461Z,101832.66
2019-02-17T00:26:05.781Z,101830.02
2019-02-17T00:28:36.055Z,101829.63
2019-02-17T00:31:06.313Z,101829.19
2019-02-17T00:33:36.615Z,101834.83
2019-02-17T00:36:06.873Z,101834.72
2019-02-17T00:38:37.154Z,101830.23
2019-02-17T00:41:07.462Z,101829.25
2019-02-17T00:43:37.749Z,101828.20
2019-02-17T00:46:08.027Z,101833.34
2019-02-17T00:48:38.319Z,101829.92
2019-02-17T00:51:08.588Z,101835.69
2019-02-17T00:53:38.898Z,101834.04
2019-02-17T00:56:10.073Z,101830.11
2019-02-17T00:58:40.516Z,101828.73
2019-02-17T01:01:10.783Z,101826.88
2019-02-17T01:03:41.056Z,101832.55
2019-02-17T01:06:11.317Z,101828.12
2019-02-17T01:08:41.667Z,101825.91
2019-02-17T01:11:11.952Z,101826.30
2019-02-17T01:13:42.317Z,101829.38
2019-02-17T01:16:12.581Z,101831.14
2019-02-17T01:18:42.891Z,101831.91
2019-02-17T01:21:13.179Z,101828.11
2019-02-17T01:23:43.622Z,101826.38
2019-02-17T01:26:14.027Z,101823.65
2019-02-17T01:28:44.317Z,101824.41
2019-02-17T01:31:14.585Z,101834.48
2019-02-17T01:33:44.936Z,101827.01
2019-02-17T01:36:16.734Z,101831.45
2019-02-17T01:38:46.986Z,101833.16
2019-02-17T01:41:17.247Z,101835.37
2019-02-17T01:43:47.509Z,101835.91
2019-02-17T01:46:17.783Z,101835.53
2019-02-17T01:48:48.081Z,101836.93
2019-02-17T01:51:18.620Z,101835.27
2019-02-17T01:53:48.911Z,101835.35
2019-02-17T01:56:20.118Z,101837.20
2019-02-17T01:58:50.444Z,101844.27
2019-02-17T02:01:20.711Z,101844.59
2019-02-17T02:03:51.069Z,101850.94
2019-02-17T02:06:21.347Z,101850.84
2019-02-17T02:08:51.627Z,101853.89
2019-02-17T02:11:21.985Z,101849.53
2019-02-17T02:13:52.408Z,101844.27
2019-02-17T02:16:22.735Z,101842.83
2019-02-17T02:18:53.016Z,101845.39
2019-02-17T02:21:23.311Z,101847.55
2019-02-17T02:23:53.400Z,101851.73
2019-02-17T02:26:23.670Z,101850.34
2019-02-17T02:28:53.949Z,101854.69
2019-02-17T02:31:25.278Z,101851.29
2019-02-17T02:33:55.540Z,101853.95
2019-02-17T02:36:27.182Z,101853.55
2019-02-17T02:38:57.475Z,101847.89
2019-02-17T02:41:34.756Z,101848.31
2019-02-17T02:43:59.751Z,101848.80
2019-02-17T02:46:30.047Z,101855.73
2019-02-17T02:49:00.404Z,101858.36
2019-02-17T02:51:30.754Z,101856.45
2019-02-17T02:54:01.026Z,101861.53
2019-02-17T02:56:32.158Z,101858.54
2019-02-17T02:59:02.444Z,101863.72
2019-02-17T03:01:32.713Z,101864.98
2019-02-17T03:04:03.063Z,101863.70
2019-02-17T03:06:50.120Z,101866.60
2019-02-17T03:09:20.319Z,101870.02
2019-02-17T03:11:50.585Z,101867.80
2019-02-17T03:14:20.860Z,101867.94
2019-02-17T03:16:51.130Z,101872.17
2019-02-17T03:19:22.548Z,101870.37
2019-02-17T03:21:52.838Z,101868.54
2019-02-17T03:24:25.949Z,101875.45
2019-02-17T03:26:56.238Z,101875.04
2019-02-17T03:29:27.539Z,101879.47
2019-02-17T03:31:57.797Z,101886.96
2019-02-17T03:34:29.122Z,101881.36
2019-02-17T03:36:59.421Z,101886.23
2019-02-17T03:39:30.838Z,101892.33
2019-02-17T03:42:01.114Z,101891.02
2019-02-17T03:44:31.377Z,101896.29
2019-02-17T03:47:01.644Z,101890.63
2019-02-17T03:49:31.902Z,101888.77
2019-02-17T03:52:02.206Z,101885.68
2019-02-17T03:54:32.521Z,101888.13
2019-02-17T03:57:03.568Z,101892.50
2019-02-17T03:59:33.876Z,101896.52
2019-02-17T04:02:04.160Z,101896.34
2019-02-17T04:04:34.438Z,101907.27
2019-02-17T04:07:04.785Z,101906.38
2019-02-17T04:09:35.062Z,101902.62
2019-02-17T04:12:05.418Z,101897.94
2019-02-17T04:14:35.784Z,101898.00
2019-02-17T04:17:06.062Z,101895.63
2019-02-17T04:19:36.320Z,101897.31
2019-02-17T04:22:06.603Z,101892.91
2019-02-17T04:24:38.021Z,101895.25
2019-02-17T04:27:08.281Z,101897.87
2019-02-17T04:29:38.565Z,101899.66
2019-02-17T04:32:09.001Z,101899.59
2019-02-17T04:34:39.251Z,101900.50
2019-02-17T04:37:09.627Z,101895.38
2019-02-17T04:39:39.913Z,101901.47
2019-02-17T04:42:10.159Z,101902.31
2019-02-17T04:44:40.415Z,101894.59
2019-02-17T04:47:10.693Z,101898.97
2019-02-17T04:49:41.070Z,101895.91
2019-02-17T04:52:11.329Z,101891.41
2019-02-17T04:54:41.598Z,101897.95
2019-02-17T04:57:12.793Z,101896.24
2019-02-17T04:59:43.039Z,101898.42
2019-02-17T05:02:13.305Z,101899.16
2019-02-17T05:04:43.569Z,101896.95
2019-02-17T05:07:13.840Z,101907.09
2019-02-17T05:09:44.106Z,101915.44
2019-02-17T05:12:14.398Z,101907.06
2019-02-17T05:14:44.677Z,101899.13
2019-02-17T05:17:14.971Z,101909.69
2019-02-17T05:19:45.287Z,101903.60
2019-02-17T05:22:15.525Z,101902.22
2019-02-17T05:24:45.776Z,101911.03
2019-02-17T05:27:16.068Z,101911.53
2019-02-17T05:29:46.356Z,101915.13
2019-02-17T05:32:16.746Z,101912.20
2019-02-17T05:34:47.007Z,101916.58
2019-02-17T05:37:17.327Z,101913.98
2019-02-17T05:39:47.582Z,101915.09
2019-02-17T05:42:17.876Z,101918.48
2019-02-17T05:44:48.151Z,101914.05
2019-02-17T05:47:18.423Z,101913.25
2019-02-17T05:49:49.066Z,101916.67
2019-02-17T05:52:20.113Z,101922.86
2019-02-17T05:54:50.748Z,101922.83
2019-02-17T05:57:22.470Z,101929.31
2019-02-17T05:59:52.727Z,101932.70
2019-02-17T06:02:23.010Z,101934.34
2019-02-17T06:04:53.351Z,101929.49
2019-02-17T06:07:23.637Z,101942.27
2019-02-17T06:09:53.900Z,101942.78
2019-02-17T06:12:24.280Z,101939.17
2019-02-17T06:14:54.575Z,101948.97
2019-02-17T06:17:24.868Z,101953.84
2019-02-17T06:19:55.150Z,101945.98
2019-02-17T06:22:25.457Z,101956.09
2019-02-17T06:24:55.823Z,101960.20
2019-02-17T06:27:26.082Z,101964.41
2019-02-17T06:29:56.343Z,101968.05
2019-02-17T06:32:26.620Z,101972.41
2019-02-17T06:34:56.894Z,101965.80
2019-02-17T06:37:27.191Z,101963.27
2019-02-17T06:39:58.428Z,101961.20
2019-02-17T06:42:28.711Z,101965.20
2019-02-17T06:44:59.013Z,101958.74
2019-02-17T06:47:30.872Z,101962.80
2019-02-17T06:50:01.216Z,101963.03
2019-02-17T06:52:31.504Z,101963.44
2019-02-17T06:55:06.079Z,101961.39
2019-02-17T06:57:38.759Z,101966.62
2019-02-17T07:00:28.007Z,101969.59
2019-02-17T07:02:58.408Z,101971.81
2019-02-17T07:05:30.314Z,101971.87
2019-02-17T07:08:00.640Z,101973.30
2019-02-17T07:10:30.885Z,101976.98
2019-02-17T07:13:01.231Z,101977.14
2019-02-17T07:15:31.498Z,101983.03
2019-02-17T07:18:01.803Z,101989.83
2019-02-17T07:20:32.056Z,101991.81
2019-02-17T07:23:02.401Z,101983.75
2019-02-17T07:25:32.696Z,101986.17
2019-02-17T07:28:02.951Z,101989.44
2019-02-17T07:30:33.218Z,101989.14
2019-02-17T07:33:03.514Z,101989.23
2019-02-17T07:35:33.801Z,101986.23
2019-02-17T07:38:04.119Z,101982.34
2019-02-17T07:40:34.404Z,101976.64
2019-02-17T07:43:04.780Z,101988.56
2019-02-17T07:45:35.066Z,101986.80
2019-02-17T07:48:05.398Z,101987.64
2019-02-17T07:50:35.778Z,101988.88
2019-02-17T07:53:06.189Z,101989.20
2019-02-17T07:55:36.588Z,101989.46
2019-02-17T07:58:07.069Z,101986.53
2019-02-17T08:00:37.357Z,101986.05
2019-02-17T08:03:07.772Z,101977.04
2019-02-17T08:05:38.028Z,101987.34
2019-02-17T08:08:08.651Z,101980.13
2019-02-17T08:10:39.241Z,101985.43
2019-02-17T08:13:09.760Z,101990.91
2019-02-17T08:15:40.069Z,101985.77
2019-02-17T08:18:10.439Z,101984.88
2019-02-17T08:20:42.392Z,101980.61
2019-02-17T08:23:13.208Z,101976.34
2019-02-17T08:25:45.459Z,101983.73
2019-02-17T08:28:15.849Z,101985.24
2019-02-17T08:30:46.166Z,101977.53
2019-02-17T08:33:16.621Z,101981.38
2019-02-17T08:35:47.074Z,101977.36
2019-02-17T08:38:17.409Z,101967.31
2019-02-17T08:40:47.697Z,101967.53
2019-02-17T08:43:17.961Z,101973.04
2019-02-17T08:45:48.265Z,101969.85
2019-02-17T08:48:18.614Z,101967.34
2019-02-17T08:50:48.933Z,101971.63
2019-02-17T08:53:19.448Z,101958.27
2019-02-17T08:55:50.000Z,101962.31
2019-02-17T08:58:21.065Z,101961.87
2019-02-17T09:00:51.646Z,101963.19
2019-02-17T09:03:22.558Z,101958.89
2019-02-17T09:05:52.905Z,101957.91
2019-02-17T09:08:23.390Z,101964.05
2019-02-17T09:10:53.702Z,101959.37
2019-02-17T09:13:23.980Z,101962.89
2019-02-17T09:15:54.268Z,101966.52
2019-02-17T09:18:24.848Z,101962.88
2019-02-17T09:20:55.248Z,101966.38
2019-02-17T09:23:26.498Z,101957.66
2019-02-17T09:25:56.918Z,101962.58
2019-02-17T09:28:27.431Z,101968.42
2019-02-17T09:30:57.720Z,101956.95
2019-02-17T09:33:28.322Z,101965.48
2019-02-17T09:35:58.754Z,101962.73
2019-02-17T09:38:29.094Z,101969.05
2019-02-17T09:40:59.504Z,101969.36
2019-02-17T09:43:29.869Z,101969.45
2019-02-17T09:46:00.393Z,101971.33
2019-02-17T09:48:30.675Z,101980.52
2019-02-17T09:51:01.037Z,101973.39
2019-02-17T09:53:34.735Z,101982.98
2019-02-17T09:56:07.486Z,101972.87
2019-02-17T09:58:40.457Z,101975.66
2019-02-17T10:01:12.215Z,101973.54
2019-02-17T10:03:42.571Z,101972.81
2019-02-17T10:06:12.831Z,101971.32
2019-02-17T10:08:43.193Z,101977.72
2019-02-17T10:11:13.550Z,101970.13
2019-02-17T10:13:43.951Z,101970.36
2019-02-17T10:16:16.464Z,101967.89
2019-02-17T10:18:47.065Z,101973.06
2019-02-17T10:21:18.247Z,101968.64
2019-02-17T10:23:49.158Z,101969.66
2019-02-17T10:26:19.498Z,101964.55
2019-02-17T10:28:49.780Z,101968.98
2019-02-17T10:31:20.293Z,101968.31
2019-02-17T10:33:50.560Z,101955.16
2019-02-17T10:36:21.035Z,101963.28
2019-02-17T10:38:51.499Z,101960.80
2019-02-17T10:41:21.868Z,101960.80
2019-02-17T10:43:52.240Z,101958.40
2019-02-17T10:46:23.404Z,101950.64
2019-02-17T10:48:53.688Z,101942.36
2019-02-17T10:51:26.525Z,101942.16
2019-02-17T10:53:56.858Z,101945.26
2019-02-17T10:57:02.713Z,101951.16
2019-02-17T11:07:00.220Z,101941.66
2019-02-17T11:09:59.800Z,101934.08
2019-02-17T11:12:34.689Z,101935.20
2019-02-17T11:15:08.613Z,101935.33
2019-02-17T11:18:00.684Z,101931.73
2019-02-17T11:20:31.224Z,101927.09
2019-02-17T11:23:01.517Z,101915.49
2019-02-17T11:25:34.875Z,101920.70
2019-02-17T11:28:05.190Z,101910.86
2019-02-17T11:30:35.455Z,101914.70
2019-02-17T11:33:05.806Z,101911.50
2019-02-17T11:35:36.075Z,101912.77
2019-02-17T11:38:10.236Z,101911.62
2019-02-17T11:49:35.855Z,101908.28
2019-02-17T11:52:06.137Z,101909.41
2019-02-17T11:54:36.453Z,101901.81
2019-02-17T11:57:06.881Z,101894.79
2019-02-17T11:59:38.021Z,101906.02
2019-02-17T12:02:08.341Z,101906.53
2019-02-17T12:04:38.777Z,101901.03
2019-02-17T12:07:09.045Z,101903.20
2019-02-17T12:09:39.312Z,101909.56
2019-02-17T12:12:09.661Z,101908.01
2019-02-17T12:14:39.930Z,101906.91
2019-02-17T12:17:10.200Z,101898.86
2019-02-17T12:19:40.549Z,101900.40
2019-02-17T12:22:18.904Z,101900.55
2019-02-17T12:24:50.392Z,101889.72
2019-02-17T12:27:34.342Z,101890.57
2019-02-17T12:30:06.525Z,101896.69
2019-02-17T12:32:36.788Z,101887.51
2019-02-17T12:35:07.525Z,101887.81
2019-02-17T12:37:38.860Z,101883.67
2019-02-17T12:40:10.580Z,101889.06
2019-02-17T12:42:40.909Z,101886.44
2019-02-17T12:45:16.051Z,101884.66
2019-02-17T12:47:44.734Z,101880.00
2019-02-17T12:50:15.200Z,101879.72
2019-02-17T12:52:47.459Z,101873.27
2019-02-17T12:55:17.865Z,101873.45
2019-02-17T12:57:48.283Z,101866.23
2019-02-17T13:00:19.221Z,101859.17
2019-02-17T13:02:49.500Z,101865.73
2019-02-17T13:05:19.784Z,101867.58
2019-02-17T13:07:50.056Z,101860.89
2019-02-17T13:10:20.449Z,101861.34
2019-02-17T13:12:50.748Z,101859.34
2019-02-17T13:15:21.055Z,101850.64
2019-02-17T13:17:52.979Z,101850.64
2019-02-17T13:20:24.426Z,101850.41
2019-02-17T13:22:55.823Z,101847.91
2019-02-17T13:25:26.136Z,101850.25
2019-02-17T13:27:56.461Z,101821.22
2019-02-17T13:30:27.696Z,101821.22
2019-02-17T13:32:57.989Z,101846.95
2019-02-17T13:35:37.352Z,101839.80
2019-02-17T13:38:04.064Z,101844.08
2019-02-17T13:40:36.487Z,101845.67
2019-02-17T13:43:08.559Z,101845.67
2019-02-17T13:45:39.080Z,101842.52
2019-02-17T13:48:10.422Z,101839.68
2019-02-17T13:50:40.906Z,101833.72
2019-02-17T13:53:12.192Z,101832.88
2019-02-17T13:55:42.645Z,101828.31
2019-02-17T13:58:12.950Z,101826.75
2019-02-17T14:00:43.417Z,101825.82
2019-02-17T14:03:13.839Z,101829.05
2019-02-17T14:05:46.461Z,101826.36
2019-02-17T14:08:18.568Z,101826.55
2019-02-17T14:10:49.818Z,101826.25
2019-02-17T14:13:20.222Z,101824.22
2019-02-17T14:15:50.535Z,101820.88
2019-02-17T14:18:21.210Z,101827.81
2019-02-17T14:20:51.446Z,101820.61
2019-02-17T14:23:21.808Z,101815.94
2019-02-17T14:25:54.871Z,101819.91
2019-02-17T14:28:26.411Z,101817.52
2019-02-17T14:30:57.528Z,101820.35
2019-02-17T14:33:30.130Z,101811.99
2019-02-17T14:36:04.386Z,101810.41
2019-02-17T14:38:34.696Z,101811.33
2019-02-17T14:41:05.576Z,101811.33
2019-02-17T14:43:37.598Z,101813.96
2019-02-17T14:46:10.126Z,101806.87
2019-02-17T14:48:42.912Z,101809.65
2019-02-17T14:51:13.426Z,101813.41
2019-02-17T14:53:49.562Z,101810.05
2019-02-17T14:56:21.568Z,101810.05
2019-02-17T14:58:52.174Z,101803.69
2019-02-17T15:01:34.823Z,101786.17
2019-02-17T15:12:32.494Z,101801.20
2019-02-17T15:15:26.489Z,101797.09
2019-02-17T15:17:57.952Z,101792.53
2019-02-17T15:20:28.808Z,101801.75
2019-02-17T15:22:59.366Z,101800.33
2019-02-17T15:26:08.542Z,101794.23
2019-02-17T15:29:15.349Z,101797.08
2019-02-17T15:31:45.661Z,101793.95
2019-02-17T15:34:18.831Z,101795.73
2019-02-17T15:36:48.056Z,101793.63
2019-02-17T15:39:18.292Z,101788.70
2019-02-17T15:41:48.878Z,101786.56
2019-02-17T15:44:19.357Z,101787.23
2019-02-17T15:46:49.689Z,101793.02
2019-02-17T15:49:20.133Z,101791.33
2019-02-17T15:51:51.116Z,101794.06
2019-02-17T15:54:23.178Z,101790.20
2019-02-17T15:56:54.089Z,101790.91
2019-02-17T15:59:24.399Z,101789.94
2019-02-17T16:01:55.592Z,101784.72
2019-02-17T16:12:44.891Z,101789.61
2019-02-17T16:15:23.645Z,101784.16
2019-02-17T16:17:55.598Z,101785.86
2019-02-17T16:20:26.000Z,101800.81
2019-02-17T16:22:56.276Z,101789.11
2019-02-17T16:25:27.067Z,101791.02
2019-02-17T16:27:57.340Z,101795.88
2019-02-17T16:30:27.732Z,101800.09
2019-02-17T16:32:57.978Z,101809.26
2019-02-17T16:35:29.031Z,101801.66
2019-02-17T16:38:00.435Z,101802.42
2019-02-17T16:40:30.784Z,101799.94
2019-02-17T16:43:02.788Z,101804.11
2019-02-17T16:45:33.741Z,101800.84
2019-02-17T16:48:04.324Z,101803.40
2019-02-17T16:51:06.003Z,101809.84
2019-02-17T16:53:36.286Z,101805.39
2019-02-17T16:56:07.006Z,101809.37
2019-02-17T16:58:38.644Z,101811.92
2019-02-17T17:01:10.561Z,101809.17
2019-02-17T17:03:41.725Z,101813.22
2019-02-17T17:06:17.779Z,101813.20
2019-02-17T17:08:48.757Z,101813.23
2019-02-17T17:11:19.036Z,101814.43
2019-02-17T17:13:49.692Z,101818.44
2019-02-17T17:16:20.096Z,101815.08
2019-02-17T17:18:52.224Z,101811.26
2019-02-17T17:21:22.625Z,101808.95
2019-02-17T17:23:54.553Z,101813.20
2019-02-17T17:26:24.983Z,101811.58
2019-02-17T17:28:55.340Z,101812.61
2019-02-17T17:31:25.733Z,101811.38
2019-02-17T17:33:57.509Z,101811.61
2019-02-17T17:36:27.827Z,101807.47
2019-02-17T17:43:01.322Z,101804.77
2019-02-17T17:45:32.274Z,101802.58
2019-02-17T17:48:03.023Z,101807.52
2019-02-17T17:50:38.036Z,101806.31
2019-02-17T17:53:09.060Z,101804.17
2019-02-17T17:55:40.601Z,101795.36
2019-02-17T17:58:11.612Z,101797.52
2019-02-17T18:00:43.665Z,101802.89
2019-02-17T18:03:14.129Z,101802.54
2019-02-17T18:05:44.489Z,101804.77
2019-02-17T18:08:14.856Z,101807.00
2019-02-17T18:10:45.593Z,101805.27
2019-02-17T18:13:16.472Z,101802.80
2019-02-17T18:15:46.854Z,101799.74
2019-02-17T18:18:17.453Z,101801.89
2019-02-17T18:20:47.723Z,101796.83
2019-02-17T18:23:18.586Z,101796.44
2019-02-17T18:25:53.238Z,101799.11
2019-02-17T18:28:29.736Z,101798.72
2019-02-17T18:31:04.702Z,101801.00
2019-02-17T18:33:35.068Z,101803.23
2019-02-17T18:36:23.875Z,101800.59
2019-02-17T18:39:35.441Z,101795.31
2019-02-17T18:42:14.649Z,101802.77
2019-02-17T18:49:02.934Z,101804.23
2019-02-17T18:51:39.038Z,101811.70
2019-02-17T18:54:11.906Z,101813.95
2019-02-17T18:56:50.921Z,101809.13
2019-02-17T18:59:27.563Z,101799.92
2019-02-17T19:02:18.964Z,101801.22
2019-02-17T19:04:50.090Z,101795.95
2019-02-17T19:07:20.399Z,101794.61
2019-02-17T19:09:51.260Z,101793.70
2019-02-17T19:12:21.960Z,101799.42
2019-02-17T19:14:52.789Z,101792.82
2019-02-17T19:17:24.152Z,101795.95
2019-02-17T19:19:56.045Z,101795.09
2019-02-17T19:22:26.389Z,101797.69
2019-02-17T19:24:56.760Z,101798.58
2019-02-17T19:27:28.574Z,101797.28
2019-02-17T19:30:00.858Z,101803.40
2019-02-17T19:32:32.251Z,101804.25
2019-02-17T19:35:04.226Z,101799.89
2019-02-17T19:41:42.624Z,101796.00
2019-02-17T19:48:04.489Z,101807.84
2019-02-17T19:51:05.511Z,101792.92
2019-02-17T19:53:36.679Z,101795.54
2019-02-17T19:57:17.629Z,101801.70
2019-02-17T19:59:48.632Z,101796.87
2019-02-17T20:02:22.065Z,101799.50
2019-02-17T20:04:55.071Z,101800.36
2019-02-17T20:07:26.430Z,101806.51
2019-02-17T20:09:56.761Z,101809.56
2019-02-17T20:12:27.805Z,101817.47
2019-02-17T20:14:58.159Z,101807.80
2019-02-17T20:17:31.831Z,101804.32
2019-02-17T20:20:02.476Z,101805.19
2019-02-17T20:22:32.742Z,101799.48
2019-02-17T20:25:03.124Z,101795.52
2019-02-17T20:27:35.751Z,101796.41
2019-02-17T20:40:51.582Z,101797.28
2019-02-17T20:43:22.928Z,101795.09
2019-02-17T20:45:53.508Z,101788.08
2019-02-17T20:48:25.250Z,101786.29
2019-02-17T20:50:56.040Z,101791.13
2019-02-17T20:53:48.763Z,101783.63
2019-02-17T20:56:19.165Z,101787.08
2019-02-17T20:58:50.350Z,101785.67
2019-02-17T21:01:21.136Z,101785.14
2019-02-17T21:03:51.438Z,101789.96
2019-02-17T21:06:23.362Z,101794.37
2019-02-17T21:08:53.617Z,101800.05
2019-02-17T21:11:23.910Z,101790.44
2019-02-17T21:13:55.504Z,101788.73
2019-02-17T21:16:26.275Z,101787.45
2019-02-17T21:18:57.993Z,101788.39
2019-02-17T21:21:28.450Z,101791.03
2019-02-17T21:23:58.906Z,101794.54
2019-02-17T21:26:30.231Z,101777.47
2019-02-17T21:29:01.025Z,101771.77
2019-02-17T21:31:32.444Z,101779.23
2019-02-17T21:38:09.950Z,101781.45
2019-02-17T21:40:40.917Z,101776.63
2019-02-17T21:43:11.583Z,101784.09
2019-02-17T21:45:42.679Z,101775.31
2019-02-17T21:48:15.116Z,101775.77
2019-02-17T21:50:46.632Z,101773.58
2019-02-17T21:53:20.449Z,101775.77
2019-02-17T21:55:49.213Z,101775.77
2019-02-17T21:58:19.680Z,101784.57
2019-02-17T22:00:51.046Z,101792.00
2019-02-17T22:03:21.383Z,101787.62
2019-02-17T22:05:53.500Z,101792.00
2019-02-17T22:08:24.776Z,101787.64
2019-02-17T22:10:55.168Z,101788.94
2019-02-17T22:13:25.488Z,101774.02
2019-02-17T22:15:56.185Z,101774.89
2019-02-17T22:18:26.621Z,101777.96
2019-02-17T22:20:56.993Z,101772.24
2019-02-17T22:23:27.263Z,101774.36
2019-02-17T22:25:57.559Z,101774.77
2019-02-17T22:28:28.735Z,101779.17
2019-02-17T22:30:59.114Z,101789.72
2019-02-17T22:33:29.387Z,101785.34
2019-02-17T22:35:59.688Z,101781.84
2019-02-17T22:38:29.970Z,101789.65
2019-02-17T22:41:00.264Z,101790.45
2019-02-17T22:43:31.724Z,101782.56
2019-02-17T22:46:02.009Z,101784.70
2019-02-17T22:48:32.326Z,101787.31
2019-02-17T22:51:02.562Z,101787.73
2019-02-17T22:53:43.137Z,101782.56
2019-02-17T22:56:04.837Z,101775.60
2019-02-17T22:58:35.213Z,101772.97
2019-02-17T23:01:07.364Z,101768.48
2019-02-17T23:03:39.394Z,101766.20
2019-02-17T23:06:10.023Z,101779.24
2019-02-17T23:08:40.344Z,101774.42
2019-02-17T23:11:10.719Z,101780.09
2019-02-17T23:13:41.159Z,101784.04
2019-02-17T23:16:11.472Z,101777.94
2019-02-17T23:18:41.978Z,101787.61
2019-02-17T23:21:12.421Z,101779.71
2019-02-17T23:23:42.693Z,101784.97
2019-02-17T23:26:12.992Z,101786.73
2019-02-17T23:28:43.348Z,101790.63
2019-02-17T23:31:13.618Z,101797.55
2019-02-17T23:33:43.924Z,101796.69
2019-02-17T23:36:14.192Z,101790.93
2019-02-17T23:38:44.498Z,101785.20
2019-02-17T23:41:14.802Z,101783.88
2019-02-17T23:43:45.176Z,101780.86
2019-02-17T23:46:15.530Z,101780.86
2019-02-17T23:48:45.861Z,101774.66
2019-02-17T23:51:16.177Z,101779.78
2019-02-17T23:53:46.464Z,101769.24
2019-02-17T23:56:16.844Z,101761.78
2019-02-17T23:58:47.190Z,101757.55
